Eglin AFB Auxiliary Field Crestview Okaloosa Florida US
ICAO: KEGI
IATA: EGI
Category: Medium
Scheduled Services: No

Elevation: 191 ft
TransAlt. 18000 ft.

Airport Communications:
APP:37.915
APP:125.1
DEP:120.9
GND:25.112
COMD POST:150.6
PTD:139.3
TWR:133.2

KEGI Zoom In..

If Map Doesn't Load, Click Here

Runways:

(A) RW 18 length 8025 ft width 150 ft
ILS 111.70 / hdg 180

(B) RW 36 length 8025 ft width 150 ft
---- / hdg 360

Location; KEGI
Day. 23 / Time. 21.18 Zulu
* Altimeter: 29.95
* Temperature: 27° c. 80.6°f.
* Wind from: 080° Speed 07 kn.
Dewpoint: 22° c.
Visibility: 10 Statute Miles.
Clouds: Few 2600 ft.

KEGI 232118Z AUTO 08007KT 10SM FEW026 27/22 A2995 RMK AO2 DZB08E18 SLP142 $


Wind From 080°
Speed 07 kn.

 
 
jpsmedia.com for Web Design worldairports.se 2018   terms of use